Time;durP1;ratioP1;P1;durP2;ratioP2;P2;SDS_P1;SDS_P2;PMS_P1;PMS_P2;Temp;Humidity;BMP_temperature;BMP_pressure;BME280_temperature;BME280_humidity;BME280_pressure;Samples;Min_cycle;Max_cycle;Signal;HPM_P1;HPM_P2
2023/06/22 00:01:13;;;;;;;6.80;6.40;;;;;;;21.95;58.67;101007.56;6014609;23;20850;-69
2023/06/22 00:03:40;;;;;;;6.22;5.80;;;;;;;21.26;59.17;100902.75;6019103;23;20031;-68
2023/06/22 00:06:06;;;;;;;6.63;6.10;;;;;;;21.90;59.15;101011.50;6051856;23;20031;-69
2023/06/22 00:08:32;;;;;;;6.22;5.90;;;;;;;21.88;59.18;101009.97;6015258;23;20030;-70
2023/06/22 00:10:59;;;;;;;6.00;5.70;;;;;;;21.73;59.27;100988.25;6048455;23;20580;-69
2023/06/22 00:13:25;;;;;;;6.78;6.38;;;;;;;21.86;58.90;101012.78;6014694;23;20033;-69
2023/06/22 00:15:52;;;;;;;6.60;6.10;;;;;;;21.82;59.43;101011.41;6044982;23;20040;-69
2023/06/22 00:18:18;;;;;;;6.88;6.38;;;;;;;21.80;59.32;101029.41;6015471;23;20011;-69
2023/06/22 00:20:45;;;;;;;6.47;6.07;;;;;;;21.55;59.35;100976.59;6049182;23;20080;-69
2023/06/22 00:23:13;;;;;;;6.40;6.00;;;;;;;21.38;59.49;100952.31;6011408;23;20085;-69
2023/06/22 00:25:40;;;;;;;6.72;6.13;;;;;;;21.68;59.60;101009.19;6042541;23;20022;-69
2023/06/22 00:28:07;;;;;;;6.72;6.20;;;;;;;21.45;60.14;100976.66;6013076;23;20030;-69
2023/06/22 00:30:34;;;;;;;6.90;6.50;;;;;;;21.57;60.10;100996.88;6043792;23;20116;-70
2023/06/22 00:33:01;;;;;;;6.78;6.18;;;;;;;21.67;59.19;101012.88;6003834;23;20007;-68
2023/06/22 00:35:30;;;;;;;7.07;6.57;;;;;;;21.65;59.99;101017.47;6049105;23;20470;-68
2023/06/22 00:38:02;;;;;;;5.93;5.63;;;;;;;21.64;59.87;101013.16;6017486;23;20022;-68
2023/06/22 00:40:29;;;;;;;7.70;7.10;;;;;;;21.61;59.60;101014.28;6037701;23;20492;-69
2023/06/22 00:42:56;;;;;;;6.43;6.03;;;;;;;21.59;60.23;101016.25;6017527;23;20039;-69
2023/06/22 00:45:23;;;;;;;7.18;6.55;;;;;;;21.59;59.88;101015.38;6019109;23;20026;-69
2023/06/22 00:47:51;;;;;;;6.43;6.03;;;;;;;21.59;60.02;101010.03;6023994;23;20031;-69
2023/06/22 00:50:21;;;;;;;6.93;6.28;;;;;;;21.60;60.12;101019.75;6040943;23;20080;-68
2023/06/22 00:52:58;;;;;;;6.50;6.00;;;;;;;21.40;60.11;100993.06;6009642;23;20027;-69
2023/06/22 00:55:28;;;;;;;6.70;6.30;;;;;;;21.55;60.52;101027.34;6040338;23;20076;-69
2023/06/22 00:57:55;;;;;;;9.80;6.30;;;;;;;21.50;60.82;101023.28;6018827;23;20033;-68
2023/06/22 01:00:25;;;;;;;6.68;6.28;;;;;;;21.51;60.01;101024.97;6049484;23;20013;-69
2023/06/22 01:02:53;;;;;;;7.88;6.60;;;;;;;21.47;60.86;101017.41;6013782;23;20026;-68
2023/06/22 01:05:24;;;;;;;7.13;6.55;;;;;;;21.26;61.30;100993.50;6040971;23;20064;-69
2023/06/22 01:08:05;;;;;;;6.80;6.30;;;;;;;21.40;62.11;101030.44;6007360;23;20483;-69
2023/06/22 01:10:43;;;;;;;7.20;6.70;;;;;;;20.94;62.32;100959.97;6038443;23;20024;-68
2023/06/22 01:13:30;;;;;;;7.18;6.68;;;;;;;21.09;61.72;100979.06;6002363;23;20091;-71
2023/06/22 01:16:03;;;;;;;7.40;6.70;;;;;;;21.03;62.31;100977.81;6036942;23;20034;-68
2023/06/22 01:18:32;;;;;;;7.22;6.72;;;;;;;21.26;61.69;101009.53;6012896;23;20485;-68
2023/06/22 01:21:00;;;;;;;6.93;6.50;;;;;;;20.94;61.59;100951.13;6010946;23;20031;-68
2023/06/22 01:23:42;;;;;;;7.07;6.57;;;;;;;21.19;62.10;101003.91;6005606;23;20486;-69
2023/06/22 01:26:18;;;;;;;6.75;6.25;;;;;;;20.61;61.99;100910.56;6037861;23;20022;-72
2023/06/22 01:28:52;;;;;;;7.05;6.47;;;;;;;21.12;62.33;101005.44;6006935;23;20042;-69
2023/06/22 01:31:23;;;;;;;7.30;6.70;;;;;;;21.14;62.04;100999.97;6044522;23;20078;-69
2023/06/22 01:33:59;;;;;;;7.82;6.30;;;;;;;21.08;62.41;100999.56;6000228;23;20120;-68
2023/06/22 01:36:26;;;;;;;6.95;6.35;;;;;;;20.97;62.84;100986.38;6035459;23;20014;-67
2023/06/22 01:38:53;;;;;;;6.88;6.38;;;;;;;20.98;63.07;100990.72;6004388;23;20022;-67
2023/06/22 01:41:21;;;;;;;6.88;6.38;;;;;;;20.72;63.25;100974.41;6032508;23;20630;-69
2023/06/22 01:43:48;;;;;;;6.60;6.10;;;;;;;20.65;63.33;100959.97;6002228;23;20030;-68
2023/06/22 01:46:15;;;;;;;6.60;6.18;;;;;;;20.50;63.48;100940.81;6034628;23;20496;-67
2023/06/22 01:48:42;;;;;;;6.53;6.13;;;;;;;20.89;64.00;101008.41;6000684;23;20019;-68
2023/06/22 01:51:09;;;;;;;6.45;6.05;;;;;;;20.87;64.67;101017.53;6042428;23;20092;-68
2023/06/22 01:53:36;;;;;;;6.50;6.10;;;;;;;20.85;65.22;101022.19;5997490;23;20011;-69
2023/06/22 01:56:02;;;;;;;6.90;6.38;;;;;;;20.67;66.03;101006.00;6041087;23;20037;-68
2023/06/22 01:58:30;;;;;;;7.18;6.68;;;;;;;20.61;66.21;101004.72;6004377;23;20007;-69
2023/06/22 02:01:06;;;;;;;6.95;6.45;;;;;;;20.48;66.57;100998.78;6044690;23;20046;-68
2023/06/22 02:03:38;;;;;;;7.93;7.32;;;;;;;20.31;67.31;100973.63;6006179;23;20066;-69
2023/06/22 02:06:07;;;;;;;7.38;6.68;;;;;;;20.62;67.59;101030.41;6044338;23;20035;-68
2023/06/22 02:08:46;;;;;;;7.60;6.90;;;;;;;20.42;68.25;101004.66;6016128;23;20011;-69
2023/06/22 02:11:15;;;;;;;7.20;6.65;;;;;;;20.61;68.82;101043.91;6044556;23;20061;-69
2023/06/22 02:13:43;;;;;;;6.97;6.47;;;;;;;20.39;68.97;101010.28;6005536;23;20014;-68
2023/06/22 02:16:11;;;;;;;11.68;6.65;;;;;;;20.25;69.20;100999.00;6036219;23;20065;-68
2023/06/22 02:18:40;;;;;;;7.60;6.90;;;;;;;20.60;69.34;101052.88;6010926;23;20089;-69
2023/06/22 02:21:06;;;;;;;7.35;6.82;;;;;;;20.13;69.85;100994.75;6045121;23;20026;-69
2023/06/22 02:23:35;;;;;;;7.75;7.05;;;;;;;20.61;69.81;101058.06;6014495;23;20030;-68
2023/06/22 02:26:03;;;;;;;6.90;6.28;;;;;;;20.23;69.40;101027.59;6011623;23;20070;-68
2023/06/22 02:28:29;;;;;;;10.38;7.05;;;;;;;20.64;70.19;101071.09;6011080;23;20802;-69
2023/06/22 02:30:56;;;;;;;7.55;6.95;;;;;;;20.18;70.59;100989.00;6048233;23;20702;-68
2023/06/22 02:33:22;;;;;;;7.97;7.28;;;;;;;20.30;70.91;101025.22;6017431;23;20449;-68
2023/06/22 02:35:49;;;;;;;7.30;6.80;;;;;;;20.39;71.40;101035.09;6048265;23;20034;-70
2023/06/22 02:38:15;;;;;;;7.05;6.57;;;;;;;20.65;71.69;101064.81;6011408;23;20018;-68
2023/06/22 02:40:41;;;;;;;7.22;6.63;;;;;;;20.65;71.97;101074.66;6051072;23;20041;-69
2023/06/22 02:43:08;;;;;;;7.97;7.15;;;;;;;20.30;71.97;101023.41;6009479;23;20035;-69
2023/06/22 02:45:34;;;;;;;7.65;6.95;;;;;;;20.65;71.70;101080.81;6020824;23;20011;-69
2023/06/22 02:48:01;;;;;;;7.70;7.05;;;;;;;20.23;72.13;101016.94;6014123;23;20087;-69
2023/06/22 02:50:27;;;;;;;7.50;6.90;;;;;;;20.21;72.46;100997.59;6043946;23;20030;-68
2023/06/22 02:52:54;;;;;;;7.65;7.07;;;;;;;20.72;71.99;101083.78;6012304;23;20090;-70
2023/06/22 02:55:20;;;;;;;7.75;7.13;;;;;;;20.38;72.00;101019.22;6020378;23;20042;-68
2023/06/22 02:57:52;;;;;;;8.32;7.53;;;;;;;20.42;72.34;101029.47;6011665;23;20095;-67
2023/06/22 03:00:19;;;;;;;7.97;7.20;;;;;;;20.76;72.09;101071.00;6048325;23;20032;-69
2023/06/22 03:02:47;;;;;;;7.28;6.80;;;;;;;20.75;72.79;101070.19;6010046;23;20390;-68
2023/06/22 03:05:17;;;;;;;14.27;13.20;;;;;;;20.75;73.03;101067.50;5921595;23;20023;-68
2023/06/22 03:07:44;;;;;;;7.60;7.00;;;;;;;20.72;72.93;101073.94;6014142;23;20019;-69
2023/06/22 03:10:13;;;;;;;7.75;7.00;;;;;;;20.72;73.44;101075.75;6046101;23;20036;-68
2023/06/22 03:12:40;;;;;;;7.47;6.85;;;;;;;20.71;74.19;101076.75;6016027;23;20027;-67
2023/06/22 03:15:09;;;;;;;7.60;7.00;;;;;;;20.65;74.36;101066.66;6045345;23;20030;-68
2023/06/22 03:17:38;;;;;;;8.15;7.45;;;;;;;20.67;74.81;101078.84;6015678;23;20011;-68
2023/06/22 03:20:10;;;;;;;7.32;6.63;;;;;;;20.65;74.68;101075.47;6039881;23;20038;-68
2023/06/22 03:22:38;;;;;;;8.60;7.70;;;;;;;20.66;74.31;101074.47;6007191;23;20034;-69
2023/06/22 03:25:09;;;;;;;7.82;7.15;;;;;;;20.66;74.00;101082.47;6050234;23;20499;-69
2023/06/22 03:27:37;;;;;;;7.37;6.87;;;;;;;20.40;74.67;101039.44;6016535;23;20170;-69
2023/06/22 03:30:04;;;;;;;7.90;7.22;;;;;;;20.65;74.43;101075.47;6054813;23;20051;-69
2023/06/22 03:32:30;;;;;;;7.25;6.75;;;;;;;20.66;75.15;101076.31;6027121;23;20023;-69
2023/06/22 03:34:59;;;;;;;8.55;7.68;;;;;;;20.52;75.46;101056.16;6047343;23;20277;-69
2023/06/22 03:37:26;;;;;;;11.10;7.70;;;;;;;20.63;75.00;101064.09;6021935;23;20040;-69
2023/06/22 03:39:53;;;;;;;8.35;7.47;;;;;;;20.31;74.87;101003.78;6047986;23;20896;-70
2023/06/22 03:42:19;;;;;;;7.55;7.00;;;;;;;20.66;74.85;101065.66;5994113;23;20030;-70
2023/06/22 03:44:46;;;;;;;7.95;7.28;;;;;;;20.40;74.23;101044.78;6042347;23;20018;-69
2023/06/22 03:47:13;;;;;;;8.45;7.60;;;;;;;20.46;74.54;101059.38;6010296;23;20450;-69
2023/06/22 03:49:39;;;;;;;8.68;7.28;;;;;;;20.63;75.01;101080.09;6049588;23;20018;-70
2023/06/22 03:52:06;;;;;;;7.38;6.88;;;;;;;20.21;74.57;101007.41;6010392;23;20029;-70
2023/06/22 03:54:32;;;;;;;8.18;7.47;;;;;;;20.67;75.08;101068.19;6018439;23;20018;-70
2023/06/22 03:56:59;;;;;;;8.70;7.80;;;;;;;20.69;74.47;101066.22;6002425;23;20027;-71
2023/06/22 03:59:26;;;;;;;11.95;7.75;;;;;;;20.74;74.81;101067.63;6051156;23;20010;-70
2023/06/22 04:01:52;;;;;;;7.47;6.88;;;;;;;20.47;74.07;101027.25;6009532;23;20007;-70
2023/06/22 04:04:19;;;;;;;7.70;7.00;;;;;;;20.82;74.10;101078.47;6046240;23;20026;-70
2023/06/22 04:06:46;;;;;;;7.85;7.22;;;;;;;20.83;73.60;101073.00;5992600;23;20044;-70
2023/06/22 04:09:12;;;;;;;8.38;7.22;;;;;;;20.87;73.28;101092.25;6043108;23;20025;-70
2023/06/22 04:11:39;;;;;;;7.88;7.22;;;;;;;20.77;73.66;101062.88;6006362;23;20030;-70
2023/06/22 04:14:05;;;;;;;7.93;7.13;;;;;;;20.62;73.71;101030.41;6046849;23;20050;-70
2023/06/22 04:16:31;;;;;;;8.07;7.28;;;;;;;20.69;73.32;101058.22;5997982;23;20023;-70
2023/06/22 04:18:58;;;;;;;7.30;6.80;;;;;;;20.89;73.57;101066.28;6048002;23;20022;-70
2023/06/22 04:21:24;;;;;;;8.10;7.30;;;;;;;20.84;73.51;101064.00;6018084;23;20018;-72
2023/06/22 04:23:51;;;;;;;7.85;7.15;;;;;;;20.84;73.71;101065.81;6048426;23;20696;-70
2023/06/22 04:26:20;;;;;;;14.38;7.57;;;;;;;20.87;74.25;101077.06;6012090;23;20071;-70
2023/06/22 04:28:51;;;;;;;8.07;7.18;;;;;;;20.42;73.92;101002.81;6027794;23;20101;-70
2023/06/22 04:31:19;;;;;;;7.22;6.72;;;;;;;20.86;74.22;101115.38;6014312;23;20724;-70
2023/06/22 04:33:45;;;;;;;9.85;7.47;;;;;;;20.85;73.71;101078.19;6043666;23;20054;-70
2023/06/22 04:36:14;;;;;;;7.63;6.85;;;;;;;20.94;73.66;101089.84;6000169;23;20020;-70
2023/06/22 04:38:42;;;;;;;8.15;7.45;;;;;;;20.96;73.54;101098.56;6036362;23;20033;-69
2023/06/22 04:41:14;;;;;;;8.00;7.18;;;;;;;20.04;72.75;100950.25;6005182;23;20047;-70
2023/06/22 04:43:40;;;;;;;7.80;7.20;;;;;;;20.95;72.97;101096.88;6043397;23;20025;-70
2023/06/22 04:46:06;;;;;;;7.68;6.97;;;;;;;20.99;73.13;101104.47;6000713;23;20803;-70
2023/06/22 04:48:33;;;;;;;8.65;7.78;;;;;;;20.99;73.04;101095.59;6043625;23;20026;-70
2023/06/22 04:51:03;;;;;;;7.80;7.20;;;;;;;20.98;73.55;101100.09;6008458;23;20015;-70
2023/06/22 04:53:31;;;;;;;7.60;7.00;;;;;;;20.59;74.83;101038.69;6040283;23;20440;-70
2023/06/22 04:55:57;;;;;;;8.10;7.40;;;;;;;21.04;75.60;101104.88;5998946;23;20037;-70
2023/06/22 04:58:32;;;;;;;7.55;6.95;;;;;;;21.08;75.34;101108.97;6038485;23;20019;-70
2023/06/22 05:01:01;;;;;;;8.27;7.55;;;;;;;20.84;75.23;101066.66;6008613;23;20067;-69
2023/06/22 05:03:27;;;;;;;8.73;8.05;;;;;;;20.76;75.06;101047.84;6044071;23;20053;-70
2023/06/22 05:05:54;;;;;;;8.13;7.43;;;;;;;21.10;74.42;101099.00;6002708;23;20047;-69
2023/06/22 05:08:20;;;;;;;9.18;8.23;;;;;;;21.17;74.93;101103.78;6036054;23;20026;-69
2023/06/22 05:10:47;;;;;;;10.32;7.20;;;;;;;21.24;74.40;101099.59;5990140;23;20583;-69
2023/06/22 05:13:29;;;;;;;7.75;7.07;;;;;;;21.34;74.18;101092.41;6036437;23;20059;-71
2023/06/22 05:16:00;;;;;;;7.72;7.13;;;;;;;21.46;73.61;101102.00;6003911;23;20019;-69
2023/06/22 05:18:29;;;;;;;8.40;7.60;;;;;;;21.16;72.31;101041.56;6041541;23;20018;-70
2023/06/22 05:20:56;;;;;;;8.20;7.40;;;;;;;21.38;71.25;101058.28;6010420;23;20023;-69
2023/06/22 05:23:22;;;;;;;8.00;7.40;;;;;;;21.39;70.71;101055.47;6038729;23;20232;-69
2023/06/22 05:25:48;;;;;;;8.00;7.18;;;;;;;21.52;69.88;101088.06;6010214;23;20600;-70
2023/06/22 05:28:15;;;;;;;8.05;7.45;;;;;;;21.53;70.62;101091.59;6043310;23;20012;-70
2023/06/22 05:30:41;;;;;;;7.35;6.75;;;;;;;21.52;70.88;101087.25;6013853;23;20091;-70
2023/06/22 05:33:08;;;;;;;7.95;7.35;;;;;;;21.54;69.89;101081.75;6052907;23;20047;-71
2023/06/22 05:35:34;;;;;;;7.85;7.25;;;;;;;21.24;70.66;101019.50;6022264;23;20025;-69
2023/06/22 05:38:01;;;;;;;8.15;7.45;;;;;;;21.51;70.17;101083.72;6020367;23;20030;-70
2023/06/22 05:40:27;;;;;;;8.63;7.90;;;;;;;21.51;71.90;101102.44;6008299;23;20141;-70
2023/06/22 05:42:54;;;;;;;7.15;6.72;;;;;;;21.18;71.44;101049.44;6042071;23;20056;-69
2023/06/22 05:45:20;;;;;;;7.72;7.07;;;;;;;21.45;71.99;101102.16;6014191;23;20033;-70
2023/06/22 05:47:47;;;;;;;8.30;7.10;;;;;;;21.41;71.95;101092.69;6018287;23;20046;-73
2023/06/22 05:50:13;;;;;;;7.55;6.85;;;;;;;21.39;72.26;101091.97;6015346;23;20027;-70
2023/06/22 05:52:39;;;;;;;7.55;7.00;;;;;;;20.84;72.38;101004.47;6037411;23;20026;-69
2023/06/22 05:55:06;;;;;;;7.53;6.93;;;;;;;21.37;72.50;101102.81;6012422;23;20684;-70
2023/06/22 05:57:33;;;;;;;7.57;6.97;;;;;;;21.17;73.04;101066.41;6036782;23;20019;-69
2023/06/22 05:59:59;;;;;;;7.95;7.32;;;;;;;21.32;72.88;101097.06;6013479;23;20029;-69
2023/06/22 06:02:25;;;;;;;7.82;7.22;;;;;;;20.17;72.96;100910.91;6039987;23;20450;-69
2023/06/22 06:04:52;;;;;;;7.13;6.47;;;;;;;21.25;73.36;101102.13;6003078;23;20098;-69
2023/06/22 06:07:21;;;;;;;10.10;7.05;;;;;;;20.56;73.62;101009.59;6042201;23;20530;-69
2023/06/22 06:09:48;;;;;;;7.55;7.00;;;;;;;21.17;74.45;101112.66;6009120;23;20086;-70
2023/06/22 06:12:14;;;;;;;7.22;6.72;;;;;;;21.15;75.89;101124.41;6045167;23;20026;-69
2023/06/22 06:14:41;;;;;;;7.53;7.03;;;;;;;21.08;77.16;101124.97;6017235;23;20368;-68
2023/06/22 06:17:07;;;;;;;8.73;7.55;;;;;;;20.54;78.04;101067.53;6049382;23;20031;-69
2023/06/22 06:19:34;;;;;;;8.25;7.55;;;;;;;20.78;80.01;101119.72;6009965;23;20011;-69
2023/06/22 06:22:00;;;;;;;7.53;6.93;;;;;;;20.90;81.23;101132.81;6048627;23;20042;-70
2023/06/22 06:24:26;;;;;;;8.82;8.07;;;;;;;20.83;83.24;101141.50;6009671;23;20027;-69
2023/06/22 06:26:53;;;;;;;9.35;7.55;;;;;;;20.79;83.25;101156.06;6046534;23;20034;-69
2023/06/22 06:29:19;;;;;;;7.75;7.15;;;;;;;20.49;86.56;101115.13;6015971;23;20019;-69
2023/06/22 06:31:45;;;;;;;7.93;7.22;;;;;;;20.64;91.00;101175.13;6044377;23;20022;-69
2023/06/22 06:34:12;;;;;;;8.20;7.50;;;;;;;20.27;93.64;101119.66;6021869;23;20125;-69
2023/06/22 06:36:38;;;;;;;9.45;8.43;;;;;;;20.19;96.11;101137.28;6045356;23;20036;-73
2023/06/22 06:39:05;;;;;;;8.10;7.40;;;;;;;20.17;99.43;101169.38;6011883;23;20018;-69
2023/06/22 06:41:31;;;;;;;9.73;8.20;;;;;;;20.18;100.00;101180.88;6040146;23;20078;-70
2023/06/22 06:43:58;;;;;;;11.23;8.10;;;;;;;20.31;100.00;101184.19;5986507;23;20023;-70
2023/06/22 06:46:24;;;;;;;9.48;7.78;;;;;;;20.05;100.00;101152.63;6038301;23;20494;-69
2023/06/22 06:48:50;;;;;;;10.13;8.07;;;;;;;20.12;100.00;101151.09;6015145;23;20323;-70
2023/06/22 06:51:17;;;;;;;10.68;8.10;;;;;;;20.16;100.00;101151.69;6050512;23;20061;-73
2023/06/22 06:53:43;;;;;;;9.25;8.40;;;;;;;20.03;100.00;101122.59;6014253;23;20060;-71
2023/06/22 06:56:10;;;;;;;8.73;7.88;;;;;;;20.26;100.00;101179.25;6051772;23;20078;-73
2023/06/22 06:58:37;;;;;;;8.77;7.97;;;;;;;20.29;100.00;101172.81;6014587;23;20066;-71
2023/06/22 07:01:03;;;;;;;8.80;8.00;;;;;;;19.04;100.00;100949.03;6044550;23;20022;-73
2023/06/22 07:03:30;;;;;;;10.30;8.30;;;;;;;20.56;100.00;101190.06;6016015;23;20536;-71
2023/06/22 07:05:56;;;;;;;13.93;8.20;;;;;;;20.65;100.00;101184.81;6049960;23;20026;-72
2023/06/22 07:08:22;;;;;;;9.15;8.35;;;;;;;20.81;100.00;101159.47;6010755;23;20107;-71
2023/06/22 07:10:49;;;;;;;9.65;8.68;;;;;;;21.36;100.00;101169.72;6051582;23;20029;-71
2023/06/22 07:13:15;;;;;;;9.95;8.85;;;;;;;21.55;100.00;101136.84;6016616;23;20633;-71
2023/06/22 07:15:42;;;;;;;10.10;8.48;;;;;;;21.69;100.00;101152.47;6025807;23;20519;-69
2023/06/22 07:18:08;;;;;;;9.60;8.65;;;;;;;21.71;96.98;101147.84;5999428;23;20011;-69
2023/06/22 07:20:35;;;;;;;9.60;8.40;;;;;;;21.89;96.79;101140.78;6047791;23;20111;-69
2023/06/22 07:23:01;;;;;;;10.27;9.25;;;;;;;21.27;96.01;101046.75;6006700;23;20042;-69
2023/06/22 07:25:28;;;;;;;9.73;8.88;;;;;;;21.54;97.25;101055.06;6050373;23;20034;-69
2023/06/22 07:28:05;;;;;;;9.35;8.55;;;;;;;22.21;97.69;101155.63;6014537;23;20342;-71
2023/06/22 07:30:32;;;;;;;9.80;8.80;;;;;;;22.52;94.70;101141.19;6049239;23;20015;-70
2023/06/22 07:33:03;;;;;;;9.30;8.20;;;;;;;22.46;92.49;101106.00;6007606;23;20363;-69
2023/06/22 07:35:31;;;;;;;13.18;8.30;;;;;;;22.96;91.53;101138.72;6051425;23;20573;-68
2023/06/22 07:37:57;;;;;;;9.65;8.57;;;;;;;23.05;88.31;101143.19;6015303;23;20055;-68
2023/06/22 07:40:23;;;;;;;10.10;9.07;;;;;;;22.61;90.80;101108.19;6045956;23;20035;-69
2023/06/22 07:42:51;;;;;;;11.02;8.93;;;;;;;22.66;92.70;101128.16;6006872;23;20034;-69
2023/06/22 07:45:18;;;;;;;9.10;8.15;;;;;;;22.67;97.12;101108.47;6043508;23;20514;-69
2023/06/22 07:47:47;;;;;;;9.10;8.20;;;;;;;22.86;95.32;101088.75;6007675;23;20022;-69
2023/06/22 07:50:13;;;;;;;9.65;8.50;;;;;;;23.30;95.87;101115.66;6048777;23;20533;-69
2023/06/22 07:52:40;;;;;;;9.90;9.02;;;;;;;23.12;97.22;101106.78;6016683;23;20489;-70
2023/06/22 07:55:06;;;;;;;9.55;8.55;;;;;;;23.09;98.32;101096.38;6048152;23;20030;-69
2023/06/22 07:57:33;;;;;;;11.85;9.25;;;;;;;22.96;98.78;101109.28;6009819;23;20034;-69
2023/06/22 08:00:04;;;;;;;12.52;9.02;;;;;;;23.21;99.27;101127.31;6046709;23;20022;-68
2023/06/22 08:02:30;;;;;;;9.40;8.50;;;;;;;23.06;96.68;101083.31;5982136;23;20149;-70
2023/06/22 08:04:57;;;;;;;8.75;8.02;;;;;;;23.09;96.86;101123.16;6020310;23;20584;-69
2023/06/22 08:07:44;;;;;;;9.40;8.60;;;;;;;22.95;97.56;101103.06;6019658;23;20533;-69
2023/06/22 08:10:13;;;;;;;9.93;9.02;;;;;;;22.78;96.98;101109.25;6013438;23;20031;-70
2023/06/22 08:12:40;;;;;;;9.73;8.82;;;;;;;22.69;99.23;101047.63;6049076;23;20010;-69
2023/06/22 08:15:10;;;;;;;12.52;8.90;;;;;;;23.47;96.14;101105.97;6005654;23;20430;-70
2023/06/22 08:17:38;;;;;;;9.18;8.45;;;;;;;23.44;94.18;101100.06;6039739;23;20070;-69
2023/06/22 08:20:10;;;;;;;8.32;7.53;;;;;;;23.74;89.47;101087.25;6002927;23;20436;-69
2023/06/22 08:22:36;;;;;;;9.02;8.30;;;;;;;23.61;90.16;101064.34;6045595;23;20006;-69
2023/06/22 08:25:04;;;;;;;10.45;8.68;;;;;;;23.86;88.15;101068.06;5977564;23;20039;-69
2023/06/22 08:27:33;;;;;;;8.55;7.82;;;;;;;23.91;84.80;101085.53;6042061;23;20065;-69
2023/06/22 08:30:00;;;;;;;9.57;8.65;;;;;;;24.24;87.46;101087.41;6009802;23;20068;-70
2023/06/22 08:32:30;;;;;;;9.38;8.48;;;;;;;24.20;85.79;101053.03;6044283;23;20070;-69
2023/06/22 08:34:57;;;;;;;9.60;8.10;;;;;;;24.40;85.33;101078.59;6013842;23;20054;-69
2023/06/22 08:37:30;;;;;;;9.98;8.55;;;;;;;24.74;85.97;101091.16;6044188;23;20022;-69
2023/06/22 08:40:09;;;;;;;9.00;8.20;;;;;;;24.51;82.47;101064.06;6015123;23;20023;-69
2023/06/22 08:42:40;;;;;;;8.43;7.72;;;;;;;24.33;85.98;101066.81;6008906;23;20476;-69
2023/06/22 08:45:07;;;;;;;9.02;8.13;;;;;;;24.12;84.94;100985.94;6014985;23;20081;-69
2023/06/22 08:47:34;;;;;;;9.48;8.60;;;;;;;24.66;82.89;101051.72;6044270;23;20010;-70
2023/06/22 08:50:03;;;;;;;8.40;7.70;;;;;;;24.39;81.17;101012.50;6012688;23;20037;-70
2023/06/22 08:52:29;;;;;;;9.25;8.32;;;;;;;24.31;82.09;100980.28;6009781;23;20509;-69
2023/06/22 08:54:56;;;;;;;8.80;8.05;;;;;;;24.76;82.79;101031.94;6028186;23;20022;-69
2023/06/22 08:57:22;;;;;;;9.60;8.70;;;;;;;24.64;82.67;100985.78;6006710;23;20037;-69
2023/06/22 08:59:49;;;;;;;8.88;8.07;;;;;;;24.85;78.88;101007.59;6049000;23;20031;-69
2023/06/22 09:02:16;;;;;;;8.80;8.00;;;;;;;24.85;79.84;101007.59;6013047;23;20026;-69
2023/06/22 09:04:43;;;;;;;8.68;7.97;;;;;;;25.11;78.63;101020.06;6049550;23;20454;-69
2023/06/22 09:07:09;;;;;;;8.93;8.13;;;;;;;25.05;79.10;101013.50;6013267;23;20027;-69
2023/06/22 09:09:36;;;;;;;9.90;8.10;;;;;;;25.46;78.01;101026.97;6043962;23;20046;-69
2023/06/22 09:12:02;;;;;;;8.75;7.97;;;;;;;25.34;75.99;100962.97;6020323;23;20102;-69
2023/06/22 09:14:29;;;;;;;11.30;8.27;;;;;;;25.71;74.16;100999.19;6045745;23;20050;-69
2023/06/22 09:16:55;;;;;;;9.07;8.20;;;;;;;26.01;73.59;100998.44;5995577;23;20037;-69
2023/06/22 09:19:22;;;;;;;8.90;8.10;;;;;;;26.45;70.24;100976.38;6051592;23;20018;-69
2023/06/22 09:21:48;;;;;;;8.32;7.53;;;;;;;26.79;67.25;100960.88;6024761;23;20015;-69
2023/06/22 09:24:15;;;;;;;8.23;7.53;;;;;;;26.45;66.13;100929.78;6049513;23;20025;-69
2023/06/22 09:26:41;;;;;;;7.93;7.32;;;;;;;26.49;67.11;100935.66;6025132;23;20027;-69
2023/06/22 09:29:08;;;;;;;7.57;6.97;;;;;;;26.36;66.77;100918.25;6051666;23;20480;-70
2023/06/22 09:31:34;;;;;;;8.30;7.60;;;;;;;26.26;66.14;100912.28;6021793;23;20505;-69
2023/06/22 09:34:01;;;;;;;7.75;7.15;;;;;;;26.69;66.75;100936.06;6052968;23;20398;-69
2023/06/22 09:36:27;;;;;;;7.95;7.25;;;;;;;26.52;66.75;100863.47;6023030;23;20018;-69
2023/06/22 09:38:58;;;;;;;8.18;7.47;;;;;;;26.83;64.29;100879.53;6050193;23;20043;-69
2023/06/22 09:41:24;;;;;;;8.10;7.47;;;;;;;26.92;63.75;100868.69;6010586;23;20039;-69
2023/06/22 09:43:51;;;;;;;8.88;7.93;;;;;;;26.89;63.67;100871.75;6051717;23;20022;-71
2023/06/22 09:46:24;;;;;;;8.13;7.43;;;;;;;26.90;63.61;100847.31;6014843;23;20093;-70
2023/06/22 09:48:51;;;;;;;8.40;7.70;;;;;;;27.20;62.46;100852.75;6046440;23;20023;-70
2023/06/22 09:51:19;;;;;;;8.00;7.20;;;;;;;26.77;62.33;100769.88;6016339;23;20056;-71
2023/06/22 09:53:46;;;;;;;9.23;8.43;;;;;;;27.69;61.79;100865.66;6036539;23;20583;-69
2023/06/22 09:56:14;;;;;;;8.18;7.47;;;;;;;27.75;60.81;100837.13;6013470;23;20047;-69
2023/06/22 09:58:52;;;;;;;8.32;7.72;;;;;;;27.69;58.65;100800.13;6048799;23;20059;-67
2023/06/22 10:01:21;;;;;;;8.48;7.72;;;;;;;27.86;58.27;100806.94;5987827;23;20031;-69
2023/06/22 10:03:47;;;;;;;8.23;7.53;;;;;;;27.37;57.56;100756.41;6049597;23;20011;-71
2023/06/22 10:06:14;;;;;;;8.85;8.15;;;;;;;27.57;57.43;100779.03;6014782;23;20027;-69
2023/06/22 10:08:40;;;;;;;10.57;7.88;;;;;;;27.32;58.84;100805.47;6044628;23;20015;-70
2023/06/22 10:11:07;;;;;;;7.97;7.30;;;;;;;27.32;57.74;100775.81;6014851;23;20027;-69
2023/06/22 10:13:33;;;;;;;8.15;7.45;;;;;;;27.33;59.81;100817.94;6049148;23;20029;-69
2023/06/22 10:16:00;;;;;;;7.78;7.18;;;;;;;27.15;59.78;100806.69;6017646;23;20039;-69
2023/06/22 10:18:26;;;;;;;8.27;7.63;;;;;;;27.20;59.68;100828.50;6054034;23;20011;-69
2023/06/22 10:20:52;;;;;;;8.00;7.40;;;;;;;26.41;61.29;100780.47;6023551;23;20037;-69
2023/06/22 10:23:20;;;;;;;8.38;7.35;;;;;;;26.95;62.11;100879.94;6050896;23;20211;-69
2023/06/22 10:25:46;;;;;;;8.35;7.68;;;;;;;26.93;60.35;100857.75;6026357;23;20035;-71
2023/06/22 10:28:13;;;;;;;7.68;7.05;;;;;;;26.86;60.93;100881.88;6054885;23;20090;-69
2023/06/22 10:30:43;;;;;;;8.10;7.43;;;;;;;26.67;61.90;100879.69;6012496;23;20016;-69
2023/06/22 10:33:11;;;;;;;9.80;8.40;;;;;;;26.54;63.23;100900.97;6051543;23;20022;-68
2023/06/22 10:35:37;;;;;;;8.15;7.53;;;;;;;26.36;64.46;100898.56;5989829;23;20086;-69
2023/06/22 10:38:05;;;;;;;7.80;7.20;;;;;;;26.42;66.18;100952.53;6047461;23;20493;-69
2023/06/22 10:40:31;;;;;;;8.77;8.07;;;;;;;26.24;67.97;100960.88;6009665;23;20368;-69
2023/06/22 10:42:58;;;;;;;9.60;7.68;;;;;;;26.07;69.34;100978.94;6047992;23;20021;-69
2023/06/22 10:45:24;;;;;;;8.13;7.43;;;;;;;25.87;75.69;101037.63;6019940;23;20039;-69
2023/06/22 10:47:51;;;;;;;8.52;7.82;;;;;;;25.50;83.59;101057.03;6048827;23;20015;-69
2023/06/22 10:50:17;;;;;;;9.00;7.57;;;;;;;25.34;88.80;101087.44;6016439;23;20045;-69
2023/06/22 10:52:44;;;;;;;8.80;7.93;;;;;;;25.12;92.27;101107.69;6034406;23;20033;-71
2023/06/22 10:55:10;;;;;;;8.35;7.65;;;;;;;24.18;99.73;101097.94;5988158;23;20030;-69
2023/06/22 10:57:38;;;;;;;9.25;8.45;;;;;;;23.87;100.00;101067.09;6046410;23;20023;-69
2023/06/22 11:00:06;;;;;;;9.48;8.43;;;;;;;23.91;100.00;101107.81;6018469;23;20093;-72
2023/06/22 11:02:32;;;;;;;9.27;8.38;;;;;;;22.63;100.00;100943.88;6050155;23;20106;-69
2023/06/22 11:05:03;;;;;;;8.70;8.00;;;;;;;23.55;100.00;101102.47;6012972;23;20050;-71
2023/06/22 11:07:29;;;;;;;9.70;8.80;;;;;;;23.58;100.00;101096.00;6049597;23;20591;-69
2023/06/22 11:09:56;;;;;;;8.68;7.65;;;;;;;23.47;100.00;101100.59;6010534;23;20048;-69
2023/06/22 11:12:22;;;;;;;10.40;8.63;;;;;;;22.70;100.00;100995.78;6051178;23;20011;-69
2023/06/22 11:14:51;;;;;;;9.10;8.25;;;;;;;23.05;100.00;101063.75;6016821;23;20509;-71
2023/06/22 11:17:18;;;;;;;9.60;8.70;;;;;;;23.10;100.00;101060.59;6043789;23;20046;-69
2023/06/22 11:19:45;;;;;;;9.63;8.68;;;;;;;22.93;100.00;101058.72;6012208;23;20019;-69
2023/06/22 11:22:11;;;;;;;11.52;8.50;;;;;;;22.86;100.00;101051.28;6022240;23;20402;-71
2023/06/22 11:24:37;;;;;;;9.35;8.35;;;;;;;22.83;100.00;101054.28;6013518;23;20825;-69
2023/06/22 11:27:04;;;;;;;9.95;9.00;;;;;;;22.85;100.00;101049.63;6046032;23;20392;-70